sensor_id;sensor_type;location;lat;lon;timestamp;pressure;altitude;pressure_sealevel;temperature;humidity
49102;BME280;34913;47.520;19.186;2023-11-22T00:00:14;99643.09;;;3.25;100.00
49102;BME280;34913;47.520;19.186;2023-11-22T00:02:40;99653.59;;;3.25;100.00
49102;BME280;34913;47.520;19.186;2023-11-22T00:05:05;99655.03;;;3.15;100.00
49102;BME280;34913;47.520;19.186;2023-11-22T00:07:33;99647.59;;;3.07;100.00
49102;BME280;34913;47.520;19.186;2023-11-22T00:09:59;99647.13;;;3.00;100.00
49102;BME280;34913;47.520;19.186;2023-11-22T00:12:26;99656.16;;;3.11;100.00
49102;BME280;34913;47.520;19.186;2023-11-22T00:14:53;99663.81;;;3.14;100.00
49102;BME280;34913;47.520;19.186;2023-11-22T00:17:18;99666.28;;;3.17;100.00
49102;BME280;34913;47.520;19.186;2023-11-22T00:19:44;99673.75;;;3.08;100.00
49102;BME280;34913;47.520;19.186;2023-11-22T00:22:10;99681.03;;;2.88;100.00
49102;BME280;34913;47.520;19.186;2023-11-22T00:24:40;99683.41;;;2.76;100.00
49102;BME280;34913;47.520;19.186;2023-11-22T00:27:09;99674.53;;;2.79;100.00
49102;BME280;34913;47.520;19.186;2023-11-22T00:29:35;99643.19;;;2.62;100.00
49102;BME280;34913;47.520;19.186;2023-11-22T00:32:01;99679.25;;;2.88;100.00
49102;BME280;34913;47.520;19.186;2023-11-22T00:34:26;99683.97;;;2.97;100.00
49102;BME280;34913;47.520;19.186;2023-11-22T00:36:52;99687.44;;;2.98;100.00
49102;BME280;34913;47.520;19.186;2023-11-22T00:39:18;99692.56;;;3.15;100.00
49102;BME280;34913;47.520;19.186;2023-11-22T00:41:44;99689.38;;;3.26;100.00
49102;BME280;34913;47.520;19.186;2023-11-22T00:44:10;99685.53;;;3.31;100.00
49102;BME280;34913;47.520;19.186;2023-11-22T00:46:35;99679.94;;;3.38;100.00
49102;BME280;34913;47.520;19.186;2023-11-22T00:49:03;99678.72;;;3.43;100.00
49102;BME280;34913;47.520;19.186;2023-11-22T00:51:32;99681.94;;;3.48;100.00
49102;BME280;34913;47.520;19.186;2023-11-22T00:53:58;99680.16;;;3.49;100.00
49102;BME280;34913;47.520;19.186;2023-11-22T00:56:24;99684.63;;;3.47;100.00
49102;BME280;34913;47.520;19.186;2023-11-22T00:58:50;99690.41;;;3.38;100.00
49102;BME280;34913;47.520;19.186;2023-11-22T01:01:21;99672.16;;;3.36;100.00
49102;BME280;34913;47.520;19.186;2023-11-22T01:03:47;99673.84;;;3.37;100.00
49102;BME280;34913;47.520;19.186;2023-11-22T01:06:13;99665.03;;;3.38;100.00
49102;BME280;34913;47.520;19.186;2023-11-22T01:08:39;99676.19;;;3.42;100.00
49102;BME280;34913;47.520;19.186;2023-11-22T01:11:05;99685.91;;;3.40;100.00
49102;BME280;34913;47.520;19.186;2023-11-22T01:13:31;99676.84;;;3.45;100.00
49102;BME280;34913;47.520;19.186;2023-11-22T01:15:58;99680.66;;;3.40;100.00
49102;BME280;34913;47.520;19.186;2023-11-22T01:18:23;99691.25;;;3.38;100.00
49102;BME280;34913;47.520;19.186;2023-11-22T01:20:49;99698.72;;;3.30;100.00
49102;BME280;34913;47.520;19.186;2023-11-22T01:23:14;99687.09;;;3.20;100.00
49102;BME280;34913;47.520;19.186;2023-11-22T01:25:40;99690.13;;;3.12;100.00
49102;BME280;34913;47.520;19.186;2023-11-22T01:28:05;99668.69;;;2.90;100.00
49102;BME280;34913;47.520;19.186;2023-11-22T01:30:32;99690.47;;;3.06;100.00
49102;BME280;34913;47.520;19.186;2023-11-22T01:32:58;99700.44;;;3.15;100.00
49102;BME280;34913;47.520;19.186;2023-11-22T01:35:24;99691.19;;;3.10;100.00
49102;BME280;34913;47.520;19.186;2023-11-22T01:37:50;99703.31;;;3.26;100.00
49102;BME280;34913;47.520;19.186;2023-11-22T01:40:16;99698.72;;;3.30;100.00
49102;BME280;34913;47.520;19.186;2023-11-22T01:42:41;99716.25;;;3.29;100.00
49102;BME280;34913;47.520;19.186;2023-11-22T01:45:08;99720.84;;;3.26;100.00
49102;BME280;34913;47.520;19.186;2023-11-22T01:47:35;99722.69;;;3.08;100.00
49102;BME280;34913;47.520;19.186;2023-11-22T01:50:03;99708.84;;;2.90;100.00
49102;BME280;34913;47.520;19.186;2023-11-22T01:52:30;99709.59;;;2.76;100.00
49102;BME280;34913;47.520;19.186;2023-11-22T01:54:56;99725.09;;;2.81;100.00
49102;BME280;34913;47.520;19.186;2023-11-22T01:57:22;99712.84;;;2.82;100.00
49102;BME280;34913;47.520;19.186;2023-11-22T01:59:48;99719.66;;;2.68;100.00
49102;BME280;34913;47.520;19.186;2023-11-22T02:02:14;99729.06;;;2.57;100.00
49102;BME280;34913;47.520;19.186;2023-11-22T02:04:39;99728.63;;;2.64;100.00
49102;BME280;34913;47.520;19.186;2023-11-22T02:07:05;99729.69;;;2.44;100.00
49102;BME280;34913;47.520;19.186;2023-11-22T02:09:30;99725.22;;;2.31;100.00
49102;BME280;34913;47.520;19.186;2023-11-22T02:11:57;99735.34;;;2.37;100.00
49102;BME280;34913;47.520;19.186;2023-11-22T02:14:23;99732.50;;;2.41;100.00
49102;BME280;34913;47.520;19.186;2023-11-22T02:16:49;99731.16;;;2.50;100.00
49102;BME280;34913;47.520;19.186;2023-11-22T02:19:16;99728.72;;;2.47;100.00
49102;BME280;34913;47.520;19.186;2023-11-22T02:21:43;99733.88;;;2.64;100.00
49102;BME280;34913;47.520;19.186;2023-11-22T02:24:09;99739.53;;;2.57;100.00
49102;BME280;34913;47.520;19.186;2023-11-22T02:26:35;99736.38;;;2.50;100.00
49102;BME280;34913;47.520;19.186;2023-11-22T02:29:02;99733.63;;;2.53;100.00
49102;BME280;34913;47.520;19.186;2023-11-22T02:31:29;99745.44;;;2.60;100.00
49102;BME280;34913;47.520;19.186;2023-11-22T02:33:55;99743.44;;;2.65;100.00
49102;BME280;34913;47.520;19.186;2023-11-22T02:36:21;99746.13;;;2.64;100.00
49102;BME280;34913;47.520;19.186;2023-11-22T02:38:47;99747.66;;;2.68;100.00
49102;BME280;34913;47.520;19.186;2023-11-22T02:41:12;99735.66;;;2.64;100.00
49102;BME280;34913;47.520;19.186;2023-11-22T02:43:38;99737.34;;;2.65;100.00
49102;BME280;34913;47.520;19.186;2023-11-22T02:46:05;99720.13;;;2.61;100.00
49102;BME280;34913;47.520;19.186;2023-11-22T02:48:30;99734.63;;;2.66;100.00
49102;BME280;34913;47.520;19.186;2023-11-22T02:50:55;99747.50;;;2.71;100.00
49102;BME280;34913;47.520;19.186;2023-11-22T02:53:21;99733.69;;;2.67;100.00
49102;BME280;34913;47.520;19.186;2023-11-22T02:55:46;99743.34;;;2.67;100.00
49102;BME280;34913;47.520;19.186;2023-11-22T02:58:12;99757.16;;;2.86;100.00
49102;BME280;34913;47.520;19.186;2023-11-22T03:00:40;99758.94;;;2.86;100.00
49102;BME280;34913;47.520;19.186;2023-11-22T03:03:06;99767.72;;;2.85;100.00
49102;BME280;34913;47.520;19.186;2023-11-22T03:05:35;99754.34;;;2.73;100.00
49102;BME280;34913;47.520;19.186;2023-11-22T03:08:03;99765.94;;;2.85;100.00
49102;BME280;34913;47.520;19.186;2023-11-22T03:10:28;99770.34;;;2.85;100.00
49102;BME280;34913;47.520;19.186;2023-11-22T03:12:55;99769.47;;;2.84;100.00
49102;BME280;34913;47.520;19.186;2023-11-22T03:15:21;99777.09;;;2.89;100.00
49102;BME280;34913;47.520;19.186;2023-11-22T03:17:46;99780.22;;;2.95;100.00
49102;BME280;34913;47.520;19.186;2023-11-22T03:20:13;99781.41;;;2.90;100.00
49102;BME280;34913;47.520;19.186;2023-11-22T03:22:41;99787.06;;;2.98;100.00
49102;BME280;34913;47.520;19.186;2023-11-22T03:25:09;99793.25;;;2.97;100.00
49102;BME280;34913;47.520;19.186;2023-11-22T03:27:36;99792.81;;;2.89;100.00
49102;BME280;34913;47.520;19.186;2023-11-22T03:30:02;99787.75;;;2.86;100.00
49102;BME280;34913;47.520;19.186;2023-11-22T03:32:28;99793.06;;;2.84;100.00
49102;BME280;34913;47.520;19.186;2023-11-22T03:34:54;99796.47;;;2.86;100.00
49102;BME280;34913;47.520;19.186;2023-11-22T03:37:19;99796.06;;;2.94;100.00
49102;BME280;34913;47.520;19.186;2023-11-22T03:39:45;99795.44;;;2.89;100.00
49102;BME280;34913;47.520;19.186;2023-11-22T03:42:16;99803.53;;;2.84;100.00
49102;BME280;34913;47.520;19.186;2023-11-22T03:44:42;99793.22;;;2.81;100.00
49102;BME280;34913;47.520;19.186;2023-11-22T03:47:09;99804.06;;;2.91;100.00
49102;BME280;34913;47.520;19.186;2023-11-22T03:49:34;99804.13;;;2.73;100.00
49102;BME280;34913;47.520;19.186;2023-11-22T03:52:00;99792.72;;;2.74;100.00
49102;BME280;34913;47.520;19.186;2023-11-22T03:54:25;99804.66;;;2.80;100.00
49102;BME280;34913;47.520;19.186;2023-11-22T03:56:51;99809.13;;;2.78;100.00
49102;BME280;34913;47.520;19.186;2023-11-22T03:59:17;99818.06;;;2.74;100.00
49102;BME280;34913;47.520;19.186;2023-11-22T04:01:43;99813.25;;;2.66;100.00
49102;BME280;34913;47.520;19.186;2023-11-22T04:04:09;99827.63;;;2.75;100.00
49102;BME280;34913;47.520;19.186;2023-11-22T04:06:35;99820.16;;;2.85;100.00
49102;BME280;34913;47.520;19.186;2023-11-22T04:09:01;99819.34;;;2.83;100.00
49102;BME280;34913;47.520;19.186;2023-11-22T04:11:27;99814.78;;;2.70;100.00
49102;BME280;34913;47.520;19.186;2023-11-22T04:13:55;99813.16;;;2.68;100.00
49102;BME280;34913;47.520;19.186;2023-11-22T04:16:20;99817.16;;;2.75;100.00
49102;BME280;34913;47.520;19.186;2023-11-22T04:18:46;99827.72;;;2.73;100.00
49102;BME280;34913;47.520;19.186;2023-11-22T04:21:11;99823.84;;;2.80;100.00
49102;BME280;34913;47.520;19.186;2023-11-22T04:23:37;99835.88;;;2.85;100.00
49102;BME280;34913;47.520;19.186;2023-11-22T04:26:03;99826.38;;;2.82;100.00
49102;BME280;34913;47.520;19.186;2023-11-22T04:28:29;99830.44;;;2.88;100.00
49102;BME280;34913;47.520;19.186;2023-11-22T04:30:55;99819.09;;;2.71;100.00
49102;BME280;34913;47.520;19.186;2023-11-22T04:33:20;99835.78;;;2.86;100.00
49102;BME280;34913;47.520;19.186;2023-11-22T04:35:50;99828.16;;;2.82;100.00
49102;BME280;34913;47.520;19.186;2023-11-22T04:38:16;99837.16;;;2.93;100.00
49102;BME280;34913;47.520;19.186;2023-11-22T04:40:41;99838.75;;;2.96;100.00
49102;BME280;34913;47.520;19.186;2023-11-22T04:43:10;99845.56;;;2.83;100.00
49102;BME280;34913;47.520;19.186;2023-11-22T04:45:35;99837.09;;;2.62;100.00
49102;BME280;34913;47.520;19.186;2023-11-22T04:48:01;99838.25;;;2.56;100.00
49102;BME280;34913;47.520;19.186;2023-11-22T04:50:27;99843.88;;;2.48;100.00
49102;BME280;34913;47.520;19.186;2023-11-22T04:52:52;99847.13;;;2.54;100.00
49102;BME280;34913;47.520;19.186;2023-11-22T04:55:18;99848.81;;;2.55;100.00
49102;BME280;34913;47.520;19.186;2023-11-22T04:57:48;99847.03;;;2.55;100.00
49102;BME280;34913;47.520;19.186;2023-11-22T05:00:14;99852.81;;;2.62;100.00
49102;BME280;34913;47.520;19.186;2023-11-22T05:02:39;99844.06;;;2.45;100.00
49102;BME280;34913;47.520;19.186;2023-11-22T05:05:06;99860.34;;;2.50;100.00
49102;BME280;34913;47.520;19.186;2023-11-22T05:07:31;99854.59;;;2.44;100.00
49102;BME280;34913;47.520;19.186;2023-11-22T05:09:57;99857.66;;;2.52;100.00
49102;BME280;34913;47.520;19.186;2023-11-22T05:12:22;99866.88;;;2.59;100.00
49102;BME280;34913;47.520;19.186;2023-11-22T05:14:49;99869.50;;;2.59;100.00
49102;BME280;34913;47.520;19.186;2023-11-22T05:17:14;99870.69;;;2.54;100.00
49102;BME280;34913;47.520;19.186;2023-11-22T05:19:40;99860.34;;;2.50;100.00
49102;BME280;34913;47.520;19.186;2023-11-22T05:22:06;99883.72;;;2.55;100.00
49102;BME280;34913;47.520;19.186;2023-11-22T05:24:32;99896.56;;;2.60;100.00
49102;BME280;34913;47.520;19.186;2023-11-22T05:27:00;99881.84;;;2.57;100.00
49102;BME280;34913;47.520;19.186;2023-11-22T05:29:25;99885.09;;;2.62;100.00
49102;BME280;34913;47.520;19.186;2023-11-22T05:31:51;99897.94;;;2.67;100.00
49102;BME280;34913;47.520;19.186;2023-11-22T05:34:17;99895.19;;;2.70;100.00
49102;BME280;34913;47.520;19.186;2023-11-22T05:36:43;99891.16;;;2.80;100.00
49102;BME280;34913;47.520;19.186;2023-11-22T05:39:08;99890.28;;;2.79;100.00
49102;BME280;34913;47.520;19.186;2023-11-22T05:41:34;99901.81;;;2.77;100.00
49102;BME280;34913;47.520;19.186;2023-11-22T05:44:00;99903.72;;;2.73;100.00
49102;BME280;34913;47.520;19.186;2023-11-22T05:46:25;99907.56;;;2.66;100.00
49102;BME280;34913;47.520;19.186;2023-11-22T05:48:51;99910.59;;;2.59;100.00
49102;BME280;34913;47.520;19.186;2023-11-22T05:51:17;99911.28;;;2.62;100.00
49102;BME280;34913;47.520;19.186;2023-11-22T05:53:42;99910.69;;;2.40;100.00
49102;BME280;34913;47.520;19.186;2023-11-22T05:56:08;99921.72;;;2.29;100.00
49102;BME280;34913;47.520;19.186;2023-11-22T05:58:35;99916.47;;;2.29;100.00
49102;BME280;34913;47.520;19.186;2023-11-22T06:01:07;99909.75;;;2.23;100.00
49102;BME280;34913;47.520;19.186;2023-11-22T06:03:34;99934.09;;;2.26;100.00
49102;BME280;34913;47.520;19.186;2023-11-22T06:06:00;99932.41;;;2.24;100.00
49102;BME280;34913;47.520;19.186;2023-11-22T06:08:25;99933.25;;;2.25;100.00
49102;BME280;34913;47.520;19.186;2023-11-22T06:10:51;99938.66;;;2.22;100.00
49102;BME280;34913;47.520;19.186;2023-11-22T06:13:19;99948.03;;;2.26;100.00
49102;BME280;34913;47.520;19.186;2023-11-22T06:15:45;99953.56;;;2.20;100.00
49102;BME280;34913;47.520;19.186;2023-11-22T06:18:11;99955.19;;;2.22;100.00
49102;BME280;34913;47.520;19.186;2023-11-22T06:20:39;99966.28;;;2.28;100.00
49102;BME280;34913;47.520;19.186;2023-11-22T06:23:05;99963.66;;;2.28;100.00
49102;BME280;34913;47.520;19.186;2023-11-22T06:25:30;99960.28;;;2.26;100.00
49102;BME280;34913;47.520;19.186;2023-11-22T06:27:55;99972.16;;;2.33;100.00
49102;BME280;34913;47.520;19.186;2023-11-22T06:30:21;99980.09;;;2.31;100.00
49102;BME280;34913;47.520;19.186;2023-11-22T06:32:47;99977.94;;;2.39;100.00
49102;BME280;34913;47.520;19.186;2023-11-22T06:35:12;99992.44;;;2.46;100.00
49102;BME280;34913;47.520;19.186;2023-11-22T06:37:40;99981.97;;;2.46;100.00
49102;BME280;34913;47.520;19.186;2023-11-22T06:40:06;99993.75;;;2.55;100.00
49102;BME280;34913;47.520;19.186;2023-11-22T06:42:33;99988.59;;;2.54;100.00
49102;BME280;34913;47.520;19.186;2023-11-22T06:44:59;99993.28;;;2.64;100.00
49102;BME280;34913;47.520;19.186;2023-11-22T06:47:27;100006.09;;;2.70;100.00
49102;BME280;34913;47.520;19.186;2023-11-22T06:49:53;100006.78;;;2.74;100.00
49102;BME280;34913;47.520;19.186;2023-11-22T06:52:18;99995.81;;;2.66;100.00
49102;BME280;34913;47.520;19.186;2023-11-22T06:54:44;100006.47;;;2.80;100.00
49102;BME280;34913;47.520;19.186;2023-11-22T06:57:10;100014.13;;;2.85;100.00
49102;BME280;34913;47.520;19.186;2023-11-22T06:59:35;100025.81;;;2.95;100.00
49102;BME280;34913;47.520;19.186;2023-11-22T07:02:01;100029.97;;;2.99;100.00
49102;BME280;34913;47.520;19.186;2023-11-22T07:04:26;100025.19;;;3.07;100.00
49102;BME280;34913;47.520;19.186;2023-11-22T07:06:52;100026.41;;;3.17;100.00
49102;BME280;34913;47.520;19.186;2023-11-22T07:09:18;100036.81;;;3.19;100.00
49102;BME280;34913;47.520;19.186;2023-11-22T07:11:44;100042.66;;;3.24;100.00
49102;BME280;34913;47.520;19.186;2023-11-22T07:14:09;100046.84;;;3.28;100.00
49102;BME280;34913;47.520;19.186;2023-11-22T07:16:35;100048.03;;;3.38;100.00
49102;BME280;34913;47.520;19.186;2023-11-22T07:19:02;100049.59;;;3.42;100.00
49102;BME280;34913;47.520;19.186;2023-11-22T07:21:29;100056.31;;;3.48;100.00
49102;BME280;34913;47.520;19.186;2023-11-22T07:23:55;100053.25;;;3.55;100.00
49102;BME280;34913;47.520;19.186;2023-11-22T07:26:21;100063.34;;;3.63;100.00
49102;BME280;34913;47.520;19.186;2023-11-22T07:28:46;100056.78;;;3.72;100.00
49102;BME280;34913;47.520;19.186;2023-11-22T07:31:12;100051.78;;;3.83;100.00
49102;BME280;34913;47.520;19.186;2023-11-22T07:33:37;100052.31;;;3.89;100.00
49102;BME280;34913;47.520;19.186;2023-11-22T07:36:04;100047.72;;;3.93;100.00
49102;BME280;34913;47.520;19.186;2023-11-22T07:38:30;100050.88;;;4.00;100.00
49102;BME280;34913;47.520;19.186;2023-11-22T07:40:57;100053.69;;;4.12;100.00
49102;BME280;34913;47.520;19.186;2023-11-22T07:43:23;100049.09;;;4.16;100.00
49102;BME280;34913;47.520;19.186;2023-11-22T07:45:48;100050.28;;;4.26;100.00
49102;BME280;34913;47.520;19.186;2023-11-22T07:48:16;100050.78;;;4.33;100.00
49102;BME280;34913;47.520;19.186;2023-11-22T07:50:41;100045.28;;;4.37;100.00
49102;BME280;34913;47.520;19.186;2023-11-22T07:53:10;100063.38;;;4.58;100.00
49102;BME280;34913;47.520;19.186;2023-11-22T07:55:40;100065.75;;;4.62;100.00
49102;BME280;34913;47.520;19.186;2023-11-22T07:58:07;100066.66;;;4.77;100.00
49102;BME280;34913;47.520;19.186;2023-11-22T08:00:33;100071.31;;;4.88;100.00
49102;BME280;34913;47.520;19.186;2023-11-22T08:03:07;100068.22;;;4.95;100.00
49102;BME280;34913;47.520;19.186;2023-11-22T08:05:34;100069.97;;;5.11;100.00
49102;BME280;34913;47.520;19.186;2023-11-22T08:08:04;100079.59;;;5.26;100.00
49102;BME280;34913;47.520;19.186;2023-11-22T08:10:36;100093.22;;;5.32;100.00
49102;BME280;34913;47.520;19.186;2023-11-22T08:13:01;100097.75;;;5.45;100.00
49102;BME280;34913;47.520;19.186;2023-11-22T08:15:28;100099.56;;;5.58;100.00
49102;BME280;34913;47.520;19.186;2023-11-22T08:17:54;100099.91;;;5.52;100.00
49102;BME280;34913;47.520;19.186;2023-11-22T08:20:20;100106.03;;;5.53;100.00
49102;BME280;34913;47.520;19.186;2023-11-22T08:22:47;100090.44;;;5.50;100.00
49102;BME280;34913;47.520;19.186;2023-11-22T08:25:14;100107.09;;;5.65;100.00
49102;BME280;34913;47.520;19.186;2023-11-22T08:27:41;100110.94;;;5.59;100.00
49102;BME280;34913;47.520;19.186;2023-11-22T08:30:10;100117.16;;;5.58;100.00
49102;BME280;34913;47.520;19.186;2023-11-22T08:32:42;100116.03;;;5.62;100.00
49102;BME280;34913;47.520;19.186;2023-11-22T08:35:09;100118.47;;;5.65;100.00
49102;BME280;34913;47.520;19.186;2023-11-22T08:37:34;100112.47;;;5.77;100.00
49102;BME280;34913;47.520;19.186;2023-11-22T08:40:06;100106.53;;;5.88;100.00
49102;BME280;34913;47.520;19.186;2023-11-22T08:42:32;100116.97;;;5.89;100.00
49102;BME280;34913;47.520;19.186;2023-11-22T08:44:57;100117.13;;;6.02;100.00
49102;BME280;34913;47.520;19.186;2023-11-22T08:47:23;100109.00;;;6.20;100.00
49102;BME280;34913;47.520;19.186;2023-11-22T08:49:48;100112.75;;;6.15;100.00
49102;BME280;34913;47.520;19.186;2023-11-22T08:52:14;100112.00;;;6.13;100.00
49102;BME280;34913;47.520;19.186;2023-11-22T08:54:39;100104.56;;;6.20;100.00
49102;BME280;34913;47.520;19.186;2023-11-22T08:57:05;100113.69;;;6.29;100.00
49102;BME280;34913;47.520;19.186;2023-11-22T08:59:31;100114.50;;;6.43;100.00
49102;BME280;34913;47.520;19.186;2023-11-22T09:01:58;100077.03;;;6.38;98.07
49102;BME280;34913;47.520;19.186;2023-11-22T09:04:23;100110.69;;;6.62;97.96
49102;BME280;34913;47.520;19.186;2023-11-22T09:06:51;100099.28;;;6.61;97.61
49102;BME280;34913;47.520;19.186;2023-11-22T09:09:16;100109.16;;;6.72;97.22
49102;BME280;34913;47.520;19.186;2023-11-22T09:11:42;100114.59;;;6.83;97.71
49102;BME280;34913;47.520;19.186;2023-11-22T09:14:07;100122.72;;;6.93;97.65
49102;BME280;34913;47.520;19.186;2023-11-22T09:16:38;100122.22;;;7.00;96.78
49102;BME280;34913;47.520;19.186;2023-11-22T09:19:04;100122.13;;;7.02;95.52
49102;BME280;34913;47.520;19.186;2023-11-22T09:21:33;100129.13;;;7.03;95.47
49102;BME280;34913;47.520;19.186;2023-11-22T09:23:59;100126.28;;;7.06;94.42
49102;BME280;34913;47.520;19.186;2023-11-22T09:26:24;100130.88;;;7.03;94.19
49102;BME280;34913;47.520;19.186;2023-11-22T09:28:50;100129.75;;;7.07;94.77
49102;BME280;34913;47.520;19.186;2023-11-22T09:31:15;100127.97;;;7.07;93.21
49102;BME280;34913;47.520;19.186;2023-11-22T09:33:45;100130.53;;;7.21;94.77
49102;BME280;34913;47.520;19.186;2023-11-22T09:36:10;100130.66;;;7.33;92.64
49102;BME280;34913;47.520;19.186;2023-11-22T09:38:36;100130.88;;;7.30;93.35
49102;BME280;34913;47.520;19.186;2023-11-22T09:41:03;100135.41;;;7.40;93.14
49102;BME280;34913;47.520;19.186;2023-11-22T09:43:28;100135.97;;;7.45;92.98
49102;BME280;34913;47.520;19.186;2023-11-22T09:45:54;100137.34;;;7.51;92.57
49102;BME280;34913;47.520;19.186;2023-11-22T09:48:21;100151.50;;;7.63;92.75
49102;BME280;34913;47.520;19.186;2023-11-22T09:51:42;100151.00;;;7.70;92.04
49102;BME280;34913;47.520;19.186;2023-11-22T09:56:22;100151.97;;;7.82;90.66
49102;BME280;34913;47.520;19.186;2023-11-22T09:58:51;100156.09;;;7.99;90.42
49102;BME280;34913;47.520;19.186;2023-11-22T10:01:20;100152.56;;;8.24;89.15
49102;BME280;34913;47.520;19.186;2023-11-22T10:03:46;100156.06;;;8.11;89.04
49102;BME280;34913;47.520;19.186;2023-11-22T10:06:12;100146.63;;;8.20;89.04
49102;BME280;34913;47.520;19.186;2023-11-22T10:08:40;100148.31;;;8.21;89.86
49102;BME280;34913;47.520;19.186;2023-11-22T10:11:06;100141.66;;;8.41;88.00
49102;BME280;34913;47.520;19.186;2023-11-22T10:13:32;100147.25;;;8.49;88.15
49102;BME280;34913;47.520;19.186;2023-11-22T10:16:12;100146.69;;;8.57;88.75
49102;BME280;34913;47.520;19.186;2023-11-22T10:18:44;100157.25;;;8.70;86.96
49102;BME280;34913;47.520;19.186;2023-11-22T10:21:23;100160.69;;;8.83;86.62
49102;BME280;34913;47.520;19.186;2023-11-22T10:23:53;100160.91;;;8.80;86.18
49102;BME280;34913;47.520;19.186;2023-11-22T10:26:19;100167.56;;;8.85;85.80
49102;BME280;34913;47.520;19.186;2023-11-22T10:28:44;100167.09;;;8.91;86.33
49102;BME280;34913;47.520;19.186;2023-11-22T10:31:10;100169.72;;;9.04;85.88
49102;BME280;34913;47.520;19.186;2023-11-22T10:33:54;100177.97;;;9.00;85.29
49102;BME280;34913;47.520;19.186;2023-11-22T10:36:22;100175.34;;;9.00;85.54
49102;BME280;34913;47.520;19.186;2023-11-22T10:38:49;100187.78;;;9.34;83.76
49102;BME280;34913;47.520;19.186;2023-11-22T10:41:15;100194.66;;;9.37;84.90
49102;BME280;34913;47.520;19.186;2023-11-22T10:43:41;100198.31;;;9.47;86.59
49102;BME280;34913;47.520;19.186;2023-11-22T10:46:07;100202.06;;;9.56;83.38
49102;BME280;34913;47.520;19.186;2023-11-22T10:48:35;100208.25;;;9.67;82.88
49102;BME280;34913;47.520;19.186;2023-11-22T10:51:02;100211.16;;;9.64;83.05
49102;BME280;34913;47.520;19.186;2023-11-22T10:53:36;100212.44;;;9.59;82.59
49102;BME280;34913;47.520;19.186;2023-11-22T10:56:15;100212.91;;;9.88;81.55
49102;BME280;34913;47.520;19.186;2023-11-22T11:01:09;100201.59;;;10.08;80.92
49102;BME280;34913;47.520;19.186;2023-11-22T11:03:37;100208.25;;;10.14;80.24
49102;BME280;34913;47.520;19.186;2023-11-22T11:06:08;100217.53;;;10.19;79.90
49102;BME280;34913;47.520;19.186;2023-11-22T11:08:38;100225.84;;;10.03;79.64
49102;BME280;34913;47.520;19.186;2023-11-22T11:11:05;100221.38;;;10.15;79.89
49102;BME280;34913;47.520;19.186;2023-11-22T11:13:31;100231.69;;;10.42;78.84
49102;BME280;34913;47.520;19.186;2023-11-22T11:15:58;100234.69;;;10.71;76.98
49102;BME280;34913;47.520;19.186;2023-11-22T11:18:25;100215.50;;;10.79;75.56
49102;BME280;34913;47.520;19.186;2023-11-22T11:20:57;100224.81;;;10.62;76.44
49102;BME280;34913;47.520;19.186;2023-11-22T11:23:25;100232.75;;;10.73;75.71
49102;BME280;34913;47.520;19.186;2023-11-22T11:25:56;100236.75;;;10.79;76.93
49102;BME280;34913;47.520;19.186;2023-11-22T11:28:22;100240.59;;;10.41;77.15
49102;BME280;34913;47.520;19.186;2023-11-22T11:30:51;100226.06;;;10.00;77.94
49102;BME280;34913;47.520;19.186;2023-11-22T11:33:33;100241.06;;;10.24;79.18
49102;BME280;34913;47.520;19.186;2023-11-22T11:36:02;100244.69;;;10.23;79.22
49102;BME280;34913;47.520;19.186;2023-11-22T11:38:34;100236.53;;;10.37;78.28
49102;BME280;34913;47.520;19.186;2023-11-22T11:41:10;100250.00;;;10.23;78.89
49102;BME280;34913;47.520;19.186;2023-11-22T11:43:56;100254.97;;;9.92;79.81
49102;BME280;34913;47.520;19.186;2023-11-22T11:46:21;100252.13;;;9.71;81.18
49102;BME280;34913;47.520;19.186;2023-11-22T11:48:54;100251.91;;;9.74;80.46
49102;BME280;34913;47.520;19.186;2023-11-22T11:51:25;100252.75;;;9.75;80.95
49102;BME280;34913;47.520;19.186;2023-11-22T11:53:51;100247.22;;;9.54;81.15
49102;BME280;34913;47.520;19.186;2023-11-22T11:56:17;100236.72;;;9.41;82.29
49102;BME280;34913;47.520;19.186;2023-11-22T11:58:44;100248.00;;;9.56;82.19
49102;BME280;34913;47.520;19.186;2023-11-22T12:01:15;100259.72;;;9.76;81.17
49102;BME280;34913;47.520;19.186;2023-11-22T12:03:45;100246.59;;;9.74;80.09
49102;BME280;34913;47.520;19.186;2023-11-22T12:06:18;100261.63;;;9.98;80.17
49102;BME280;34913;47.520;19.186;2023-11-22T12:08:45;100256.44;;;9.96;79.80
49102;BME280;34913;47.520;19.186;2023-11-22T12:11:12;100263.09;;;10.13;79.21
49102;BME280;34913;47.520;19.186;2023-11-22T12:13:39;100269.59;;;10.09;78.49
49102;BME280;34913;47.520;19.186;2023-11-22T12:16:07;100268.06;;;9.83;77.92
49102;BME280;34913;47.520;19.186;2023-11-22T12:21:08;100269.56;;;9.63;79.41
49102;BME280;34913;47.520;19.186;2023-11-22T12:23:38;100268.56;;;9.52;79.41
49102;BME280;34913;47.520;19.186;2023-11-22T12:26:04;100274.13;;;9.37;79.57
49102;BME280;34913;47.520;19.186;2023-11-22T12:28:30;100281.22;;;9.36;80.06
49102;BME280;34913;47.520;19.186;2023-11-22T12:31:13;100282.47;;;9.43;79.61
49102;BME280;34913;47.520;19.186;2023-11-22T12:33:43;100284.19;;;9.32;79.86
49102;BME280;34913;47.520;19.186;2023-11-22T12:36:10;100281.56;;;9.32;79.32
49102;BME280;34913;47.520;19.186;2023-11-22T12:38:40;100287.75;;;9.19;79.70
49102;BME280;34913;47.520;19.186;2023-11-22T12:41:06;100296.25;;;9.12;78.58
49102;BME280;34913;47.520;19.186;2023-11-22T12:43:35;100290.72;;;9.15;79.19
49102;BME280;34913;47.520;19.186;2023-11-22T12:46:07;100307.44;;;9.28;77.51
49102;BME280;34913;47.520;19.186;2023-11-22T12:48:35;100305.66;;;9.16;78.06
49102;BME280;34913;47.520;19.186;2023-11-22T12:51:01;100322.97;;;9.09;77.16
49102;BME280;34913;47.520;19.186;2023-11-22T12:53:27;100317.31;;;9.13;77.03